sensor_id;sensor_type;location;lat;lon;timestamp;P1;durP1;ratioP1;P2;durP2;ratioP2
60494;SDS011;46342;49.046;11.920;2023-02-08T19:27:48;19.83;;;8.88;;
60494;SDS011;46342;49.046;11.920;2023-02-08T19:30:14;16.52;;;8.95;;
60494;SDS011;46342;49.046;11.920;2023-02-08T19:32:41;21.00;;;9.73;;
60494;SDS011;46342;49.046;11.920;2023-02-08T19:35:07;21.98;;;10.38;;
60494;SDS011;46342;49.046;11.920;2023-02-08T19:37:32;21.15;;;9.27;;
60494;SDS011;46342;49.046;11.920;2023-02-08T19:39:58;24.77;;;11.55;;
60494;SDS011;46342;49.046;11.920;2023-02-08T19:42:23;19.65;;;8.27;;
60494;SDS011;46342;49.046;11.920;2023-02-08T19:44:49;17.42;;;9.07;;
60494;SDS011;46342;49.046;11.920;2023-02-08T19:47:14;20.95;;;9.70;;
60494;SDS011;46342;49.046;11.920;2023-02-08T19:49:40;21.95;;;10.05;;
60494;SDS011;46342;49.046;11.920;2023-02-08T19:52:06;19.70;;;8.32;;
60494;SDS011;46342;49.046;11.920;2023-02-08T19:54:32;19.65;;;9.32;;
60494;SDS011;46342;49.046;11.920;2023-02-08T19:56:57;17.52;;;7.75;;
60494;SDS011;46342;49.046;11.920;2023-02-08T19:59:24;19.40;;;8.80;;
60494;SDS011;46342;49.046;11.920;2023-02-08T20:01:53;17.83;;;7.93;;
60494;SDS011;46342;49.046;11.920;2023-02-08T20:04:19;15.93;;;7.85;;
60494;SDS011;46342;49.046;11.920;2023-02-08T20:06:48;15.88;;;8.32;;
60494;SDS011;46342;49.046;11.920;2023-02-08T20:09:15;17.67;;;7.63;;
60494;SDS011;46342;49.046;11.920;2023-02-08T20:11:41;14.55;;;7.13;;
60494;SDS011;46342;49.046;11.920;2023-02-08T20:14:09;18.38;;;7.57;;
60494;SDS011;46342;49.046;11.920;2023-02-08T20:16:35;14.17;;;7.33;;
60494;SDS011;46342;49.046;11.920;2023-02-08T20:19:01;18.00;;;8.40;;
60494;SDS011;46342;49.046;11.920;2023-02-08T20:21:27;16.65;;;7.57;;
60494;SDS011;46342;49.046;11.920;2023-02-08T20:23:52;12.35;;;7.15;;
60494;SDS011;46342;49.046;11.920;2023-02-08T20:26:22;13.50;;;6.63;;
60494;SDS011;46342;49.046;11.920;2023-02-08T20:28:51;14.63;;;7.13;;
60494;SDS011;46342;49.046;11.920;2023-02-08T20:31:25;13.30;;;5.97;;
60494;SDS011;46342;49.046;11.920;2023-02-08T20:33:51;17.65;;;6.78;;
60494;SDS011;46342;49.046;11.920;2023-02-08T20:36:22;11.75;;;7.13;;
60494;SDS011;46342;49.046;11.920;2023-02-08T20:38:53;15.63;;;5.97;;
60494;SDS011;46342;49.046;11.920;2023-02-08T20:41:20;13.73;;;6.05;;
60494;SDS011;46342;49.046;11.920;2023-02-08T20:43:47;13.25;;;6.35;;
60494;SDS011;46342;49.046;11.920;2023-02-08T20:46:14;32.38;;;16.95;;
60494;SDS011;46342;49.046;11.920;2023-02-08T20:48:48;15.55;;;7.47;;
60494;SDS011;46342;49.046;11.920;2023-02-08T20:51:15;13.27;;;6.10;;
60494;SDS011;46342;49.046;11.920;2023-02-08T20:56:13;11.27;;;6.22;;
60494;SDS011;46342;49.046;11.920;2023-02-08T20:58:41;11.18;;;5.97;;
60494;SDS011;46342;49.046;11.920;2023-02-08T21:01:07;14.70;;;4.97;;
60494;SDS011;46342;49.046;11.920;2023-02-08T21:06:01;7.70;;;4.10;;
60494;SDS011;46342;49.046;11.920;2023-02-08T21:08:38;9.07;;;4.40;;
60494;SDS011;46342;49.046;11.920;2023-02-08T21:11:04;11.50;;;5.25;;
60494;SDS011;46342;49.046;11.920;2023-02-08T21:13:30;8.60;;;4.72;;
60494;SDS011;46342;49.046;11.920;2023-02-08T21:15:56;7.97;;;4.55;;
60494;SDS011;46342;49.046;11.920;2023-02-08T21:18:21;12.32;;;5.22;;
60494;SDS011;46342;49.046;11.920;2023-02-08T21:20:47;11.02;;;4.78;;
60494;SDS011;46342;49.046;11.920;2023-02-08T21:23:13;9.20;;;4.30;;
60494;SDS011;46342;49.046;11.920;2023-02-08T21:25:39;11.60;;;4.78;;
60494;SDS011;46342;49.046;11.920;2023-02-08T21:28:11;10.85;;;5.25;;
60494;SDS011;46342;49.046;11.920;2023-02-08T21:30:37;8.95;;;5.18;;
60494;SDS011;46342;49.046;11.920;2023-02-08T21:33:04;10.10;;;5.05;;
60494;SDS011;46342;49.046;11.920;2023-02-08T21:35:30;8.23;;;4.72;;
60494;SDS011;46342;49.046;11.920;2023-02-08T21:37:55;9.57;;;4.68;;
60494;SDS011;46342;49.046;11.920;2023-02-08T21:40:21;7.55;;;4.10;;
60494;SDS011;46342;49.046;11.920;2023-02-08T21:42:47;6.97;;;3.80;;
60494;SDS011;46342;49.046;11.920;2023-02-08T21:45:12;9.13;;;4.20;;
60494;SDS011;46342;49.046;11.920;2023-02-08T21:47:38;10.93;;;5.15;;
60494;SDS011;46342;49.046;11.920;2023-02-08T21:50:04;8.65;;;4.78;;
60494;SDS011;46342;49.046;11.920;2023-02-08T21:52:50;5.70;;;3.20;;
60494;SDS011;46342;49.046;11.920;2023-02-08T21:55:34;5.75;;;3.95;;
60494;SDS011;46342;49.046;11.920;2023-02-08T21:57:59;8.10;;;3.72;;
60494;SDS011;46342;49.046;11.920;2023-02-08T22:00:25;8.13;;;3.85;;
60494;SDS011;46342;49.046;11.920;2023-02-08T22:02:50;7.78;;;3.97;;
60494;SDS011;46342;49.046;11.920;2023-02-08T22:05:16;5.80;;;3.90;;
60494;SDS011;46342;49.046;11.920;2023-02-08T22:08:00;9.43;;;4.50;;
60494;SDS011;46342;49.046;11.920;2023-02-08T22:10:27;5.95;;;3.17;;
60494;SDS011;46342;49.046;11.920;2023-02-08T22:12:54;7.55;;;3.75;;
60494;SDS011;46342;49.046;11.920;2023-02-08T22:15:22;8.77;;;3.85;;
60494;SDS011;46342;49.046;11.920;2023-02-08T22:17:53;7.93;;;3.75;;
60494;SDS011;46342;49.046;11.920;2023-02-08T22:20:20;7.22;;;3.45;;
60494;SDS011;46342;49.046;11.920;2023-02-08T22:22:46;6.68;;;3.28;;
60494;SDS011;46342;49.046;11.920;2023-02-08T22:25:12;4.82;;;3.05;;
60494;SDS011;46342;49.046;11.920;2023-02-08T22:27:38;6.30;;;3.38;;
60494;SDS011;46342;49.046;11.920;2023-02-08T22:30:05;4.47;;;3.05;;
60494;SDS011;46342;49.046;11.920;2023-02-08T22:32:32;8.00;;;3.60;;
60494;SDS011;46342;49.046;11.920;2023-02-08T22:34:58;6.30;;;2.85;;
60494;SDS011;46342;49.046;11.920;2023-02-08T22:37:24;5.40;;;3.08;;
60494;SDS011;46342;49.046;11.920;2023-02-08T22:39:50;6.22;;;3.22;;
60494;SDS011;46342;49.046;11.920;2023-02-08T22:42:15;7.03;;;3.47;;
60494;SDS011;46342;49.046;11.920;2023-02-08T22:44:41;6.15;;;3.20;;
60494;SDS011;46342;49.046;11.920;2023-02-08T22:47:08;7.05;;;3.38;;
60494;SDS011;46342;49.046;11.920;2023-02-08T22:52:02;5.70;;;2.70;;
60494;SDS011;46342;49.046;11.920;2023-02-08T22:54:30;5.22;;;2.78;;
60494;SDS011;46342;49.046;11.920;2023-02-08T22:56:56;3.88;;;2.30;;
60494;SDS011;46342;49.046;11.920;2023-02-08T22:59:21;4.72;;;2.22;;
60494;SDS011;46342;49.046;11.920;2023-02-08T23:01:47;3.35;;;2.13;;
60494;SDS011;46342;49.046;11.920;2023-02-08T23:04:13;5.57;;;3.60;;
60494;SDS011;46342;49.046;11.920;2023-02-08T23:06:38;4.20;;;2.33;;
60494;SDS011;46342;49.046;11.920;2023-02-08T23:09:04;3.63;;;2.45;;
60494;SDS011;46342;49.046;11.920;2023-02-08T23:11:30;6.00;;;2.85;;
60494;SDS011;46342;49.046;11.920;2023-02-08T23:13:56;7.80;;;2.83;;
60494;SDS011;46342;49.046;11.920;2023-02-08T23:16:22;6.68;;;2.63;;
60494;SDS011;46342;49.046;11.920;2023-02-08T23:18:48;3.47;;;2.22;;
60494;SDS011;46342;49.046;11.920;2023-02-08T23:21:15;4.90;;;2.60;;
60494;SDS011;46342;49.046;11.920;2023-02-08T23:23:43;7.35;;;3.50;;
60494;SDS011;46342;49.046;11.920;2023-02-08T23:26:11;5.90;;;2.70;;
60494;SDS011;46342;49.046;11.920;2023-02-08T23:28:39;7.43;;;3.15;;
60494;SDS011;46342;49.046;11.920;2023-02-08T23:31:08;5.97;;;2.90;;
60494;SDS011;46342;49.046;11.920;2023-02-08T23:33:35;4.10;;;2.72;;
60494;SDS011;46342;49.046;11.920;2023-02-08T23:36:09;5.38;;;2.45;;
60494;SDS011;46342;49.046;11.920;2023-02-08T23:38:36;5.07;;;2.90;;
60494;SDS011;46342;49.046;11.920;2023-02-08T23:41:03;5.95;;;3.25;;
60494;SDS011;46342;49.046;11.920;2023-02-08T23:43:29;5.43;;;2.60;;
60494;SDS011;46342;49.046;11.920;2023-02-08T23:45:55;5.05;;;2.90;;
60494;SDS011;46342;49.046;11.920;2023-02-08T23:48:21;5.82;;;2.78;;
60494;SDS011;46342;49.046;11.920;2023-02-08T23:50:55;6.15;;;2.80;;
60494;SDS011;46342;49.046;11.920;2023-02-08T23:53:24;5.35;;;2.75;;
60494;SDS011;46342;49.046;11.920;2023-02-08T23:56:36;5.63;;;3.42;;
60494;SDS011;46342;49.046;11.920;2023-02-08T23:58:39;6.80;;;2.88;;
